sensor_id;sensor_type;location;lat;lon;timestamp;pressure;altitude;pressure_sealevel;temperature
19102;BMP280;9683;49.028;12.064;2023-06-14T00:02:20;96838.41;;;20.97
19102;BMP280;9683;49.028;12.064;2023-06-14T00:04:47;96842.53;;;20.94
19102;BMP280;9683;49.028;12.064;2023-06-14T00:07:17;96807.22;;;20.72
19102;BMP280;9683;49.028;12.064;2023-06-14T00:09:44;96840.53;;;20.86
19102;BMP280;9683;49.028;12.064;2023-06-14T00:12:11;96843.03;;;20.83
19102;BMP280;9683;49.028;12.064;2023-06-14T00:14:37;96843.72;;;20.75
19102;BMP280;9683;49.028;12.064;2023-06-14T00:17:04;96836.50;;;20.70
19102;BMP280;9683;49.028;12.064;2023-06-14T00:19:32;96841.19;;;20.65
19102;BMP280;9683;49.028;12.064;2023-06-14T00:22:00;96832.88;;;20.61
19102;BMP280;9683;49.028;12.064;2023-06-14T00:24:28;96841.88;;;20.56
19102;BMP280;9683;49.028;12.064;2023-06-14T00:26:55;96846.63;;;20.46
19102;BMP280;9683;49.028;12.064;2023-06-14T00:29:22;96839.41;;;20.41
19102;BMP280;9683;49.028;12.064;2023-06-14T00:31:49;96795.34;;;20.08
19102;BMP280;9683;49.028;12.064;2023-06-14T00:34:15;96836.91;;;20.31
19102;BMP280;9683;49.028;12.064;2023-06-14T00:36:42;96840.94;;;20.29
19102;BMP280;9683;49.028;12.064;2023-06-14T00:39:08;96839.72;;;20.21
19102;BMP280;9683;49.028;12.064;2023-06-14T00:41:37;96839.22;;;20.19
19102;BMP280;9683;49.028;12.064;2023-06-14T00:44:04;96835.44;;;20.20
19102;BMP280;9683;49.028;12.064;2023-06-14T00:46:31;96834.09;;;20.18
19102;BMP280;9683;49.028;12.064;2023-06-14T00:48:58;96832.81;;;20.15
19102;BMP280;9683;49.028;12.064;2023-06-14T00:51:25;96829.78;;;20.17
19102;BMP280;9683;49.028;12.064;2023-06-14T00:53:52;96833.31;;;20.17
19102;BMP280;9683;49.028;12.064;2023-06-14T00:56:19;96797.47;;;19.93
19102;BMP280;9683;49.028;12.064;2023-06-14T00:58:47;96835.78;;;20.13
19102;BMP280;9683;49.028;12.064;2023-06-14T01:01:14;96831.94;;;20.01
19102;BMP280;9683;49.028;12.064;2023-06-14T01:03:41;96837.72;;;19.94
19102;BMP280;9683;49.028;12.064;2023-06-14T01:06:15;96840.19;;;19.91
19102;BMP280;9683;49.028;12.064;2023-06-14T01:08:59;96828.16;;;19.83
19102;BMP280;9683;49.028;12.064;2023-06-14T01:11:31;96838.47;;;19.81
19102;BMP280;9683;49.028;12.064;2023-06-14T01:14:01;96827.44;;;19.78
19102;BMP280;9683;49.028;12.064;2023-06-14T01:16:29;96794.06;;;19.50
19102;BMP280;9683;49.028;12.064;2023-06-14T01:18:56;96838.31;;;19.73
19102;BMP280;9683;49.028;12.064;2023-06-14T01:21:24;96819.31;;;19.59
19102;BMP280;9683;49.028;12.064;2023-06-14T01:23:52;96838.59;;;19.71
19102;BMP280;9683;49.028;12.064;2023-06-14T01:26:20;96836.41;;;19.73
19102;BMP280;9683;49.028;12.064;2023-06-14T01:28:47;96835.59;;;19.73
19102;BMP280;9683;49.028;12.064;2023-06-14T01:31:17;96837.56;;;19.67
19102;BMP280;9683;49.028;12.064;2023-06-14T01:33:45;96827.94;;;19.61
19102;BMP280;9683;49.028;12.064;2023-06-14T01:36:12;96832.59;;;19.55
19102;BMP280;9683;49.028;12.064;2023-06-14T01:38:41;96839.97;;;19.50
19102;BMP280;9683;49.028;12.064;2023-06-14T01:41:11;96826.84;;;19.43
19102;BMP280;9683;49.028;12.064;2023-06-14T01:43:39;96828.25;;;19.36
19102;BMP280;9683;49.028;12.064;2023-06-14T01:46:06;96833.94;;;19.34
19102;BMP280;9683;49.028;12.064;2023-06-14T01:48:33;96825.31;;;19.32
19102;BMP280;9683;49.028;12.064;2023-06-14T01:50:59;96816.28;;;19.23
19102;BMP280;9683;49.028;12.064;2023-06-14T01:53:29;96810.13;;;19.17
19102;BMP280;9683;49.028;12.064;2023-06-14T01:55:56;96832.97;;;19.25
19102;BMP280;9683;49.028;12.064;2023-06-14T01:58:26;96834.69;;;19.16
19102;BMP280;9683;49.028;12.064;2023-06-14T02:00:56;96835.31;;;18.84
19102;BMP280;9683;49.028;12.064;2023-06-14T02:03:26;96843.31;;;18.65
19102;BMP280;9683;49.028;12.064;2023-06-14T02:05:52;96828.09;;;18.51
19102;BMP280;9683;49.028;12.064;2023-06-14T02:08:19;96839.09;;;18.59
19102;BMP280;9683;49.028;12.064;2023-06-14T02:10:46;96832.34;;;18.57
19102;BMP280;9683;49.028;12.064;2023-06-14T02:13:12;96822.16;;;18.49
19102;BMP280;9683;49.028;12.064;2023-06-14T02:15:40;96836.41;;;18.59
19102;BMP280;9683;49.028;12.064;2023-06-14T02:18:09;96823.50;;;18.51
19102;BMP280;9683;49.028;12.064;2023-06-14T02:20:36;96821.09;;;18.50
19102;BMP280;9683;49.028;12.064;2023-06-14T02:23:03;96825.94;;;18.48
19102;BMP280;9683;49.028;12.064;2023-06-14T02:25:30;96829.22;;;18.45
19102;BMP280;9683;49.028;12.064;2023-06-14T02:27:57;96846.22;;;18.40
19102;BMP280;9683;49.028;12.064;2023-06-14T02:30:23;96837.94;;;18.31
19102;BMP280;9683;49.028;12.064;2023-06-14T02:32:51;96853.03;;;18.32
19102;BMP280;9683;49.028;12.064;2023-06-14T02:35:18;96850.13;;;18.24
19102;BMP280;9683;49.028;12.064;2023-06-14T02:37:45;96843.25;;;18.08
19102;BMP280;9683;49.028;12.064;2023-06-14T02:40:12;96848.44;;;17.99
19102;BMP280;9683;49.028;12.064;2023-06-14T02:42:39;96816.63;;;17.67
19102;BMP280;9683;49.028;12.064;2023-06-14T02:45:06;96849.41;;;17.79
19102;BMP280;9683;49.028;12.064;2023-06-14T02:47:33;96850.50;;;17.73
19102;BMP280;9683;49.028;12.064;2023-06-14T02:50:01;96851.03;;;17.75
19102;BMP280;9683;49.028;12.064;2023-06-14T02:52:28;96842.97;;;17.75
19102;BMP280;9683;49.028;12.064;2023-06-14T02:54:55;96846.13;;;17.82
19102;BMP280;9683;49.028;12.064;2023-06-14T02:57:22;96831.34;;;17.80
19102;BMP280;9683;49.028;12.064;2023-06-14T02:59:48;96805.59;;;17.64
19102;BMP280;9683;49.028;12.064;2023-06-14T03:02:15;96821.69;;;17.74
19102;BMP280;9683;49.028;12.064;2023-06-14T03:04:42;96848.03;;;17.82
19102;BMP280;9683;49.028;12.064;2023-06-14T03:07:11;96849.41;;;17.74
19102;BMP280;9683;49.028;12.064;2023-06-14T03:09:38;96855.41;;;17.66
19102;BMP280;9683;49.028;12.064;2023-06-14T03:12:06;96856.22;;;17.62
19102;BMP280;9683;49.028;12.064;2023-06-14T03:14:32;96854.66;;;17.51
19102;BMP280;9683;49.028;12.064;2023-06-14T03:17:00;96827.28;;;17.33
19102;BMP280;9683;49.028;12.064;2023-06-14T03:19:30;96860.06;;;17.46
19102;BMP280;9683;49.028;12.064;2023-06-14T03:21:56;96852.25;;;17.39
19102;BMP280;9683;49.028;12.064;2023-06-14T03:24:25;96863.00;;;17.44
19102;BMP280;9683;49.028;12.064;2023-06-14T03:26:52;96857.63;;;17.39
19102;BMP280;9683;49.028;12.064;2023-06-14T03:29:19;96860.63;;;17.37
19102;BMP280;9683;49.028;12.064;2023-06-14T03:31:56;96864.13;;;17.38
19102;BMP280;9683;49.028;12.064;2023-06-14T03:34:23;96870.56;;;17.42
19102;BMP280;9683;49.028;12.064;2023-06-14T03:36:50;96862.75;;;17.40
19102;BMP280;9683;49.028;12.064;2023-06-14T03:39:16;96865.97;;;17.42
19102;BMP280;9683;49.028;12.064;2023-06-14T03:41:44;96857.63;;;17.39
19102;BMP280;9683;49.028;12.064;2023-06-14T03:44:11;96863.25;;;17.42
19102;BMP280;9683;49.028;12.064;2023-06-14T03:46:37;96871.06;;;17.44
19102;BMP280;9683;49.028;12.064;2023-06-14T03:49:04;96874.00;;;17.48
19102;BMP280;9683;49.028;12.064;2023-06-14T03:51:30;96882.91;;;17.48
19102;BMP280;9683;49.028;12.064;2023-06-14T03:53:57;96879.94;;;17.50
19102;BMP280;9683;49.028;12.064;2023-06-14T03:56:23;96884.25;;;17.51
19102;BMP280;9683;49.028;12.064;2023-06-14T03:58:51;96885.31;;;17.55
19102;BMP280;9683;49.028;12.064;2023-06-14T04:01:18;96884.53;;;17.44
19102;BMP280;9683;49.028;12.064;2023-06-14T04:03:45;96880.78;;;17.35
19102;BMP280;9683;49.028;12.064;2023-06-14T04:06:12;96891.81;;;17.38
19102;BMP280;9683;49.028;12.064;2023-06-14T04:08:44;96893.97;;;17.41
19102;BMP280;9683;49.028;12.064;2023-06-14T04:11:11;96898.78;;;17.45
19102;BMP280;9683;49.028;12.064;2023-06-14T04:13:37;96888.59;;;17.41
19102;BMP280;9683;49.028;12.064;2023-06-14T04:16:06;96890.16;;;17.42
19102;BMP280;9683;49.028;12.064;2023-06-14T04:18:32;96899.88;;;17.43
19102;BMP280;9683;49.028;12.064;2023-06-14T04:20:59;96897.41;;;17.47
19102;BMP280;9683;49.028;12.064;2023-06-14T04:23:25;96895.78;;;17.51
19102;BMP280;9683;49.028;12.064;2023-06-14T04:25:53;96903.63;;;17.58
19102;BMP280;9683;49.028;12.064;2023-06-14T04:28:20;96897.41;;;17.62
19102;BMP280;9683;49.028;12.064;2023-06-14T04:30:50;96903.28;;;17.69
19102;BMP280;9683;49.028;12.064;2023-06-14T04:33:20;96886.63;;;17.57
19102;BMP280;9683;49.028;12.064;2023-06-14T04:35:48;96906.53;;;17.66
19102;BMP280;9683;49.028;12.064;2023-06-14T04:38:19;96912.75;;;17.52
19102;BMP280;9683;49.028;12.064;2023-06-14T04:40:49;96925.94;;;17.48
19102;BMP280;9683;49.028;12.064;2023-06-14T04:43:18;96918.19;;;17.41
19102;BMP280;9683;49.028;12.064;2023-06-14T04:45:50;96913.88;;;17.35
19102;BMP280;9683;49.028;12.064;2023-06-14T04:48:17;96914.94;;;17.39
19102;BMP280;9683;49.028;12.064;2023-06-14T04:50:46;96910.63;;;17.43
19102;BMP280;9683;49.028;12.064;2023-06-14T04:53:12;96912.81;;;17.36
19102;BMP280;9683;49.028;12.064;2023-06-14T04:55:39;96892.13;;;17.22
19102;BMP280;9683;49.028;12.064;2023-06-14T04:58:10;96913.88;;;17.35
19102;BMP280;9683;49.028;12.064;2023-06-14T05:00:38;96918.44;;;17.40
19102;BMP280;9683;49.028;12.064;2023-06-14T05:03:04;96921.38;;;17.49
19102;BMP280;9683;49.028;12.064;2023-06-14T05:05:32;96922.44;;;17.58
19102;BMP280;9683;49.028;12.064;2023-06-14T05:07:59;96921.88;;;17.61
19102;BMP280;9683;49.028;12.064;2023-06-14T05:10:26;96926.19;;;17.62
19102;BMP280;9683;49.028;12.064;2023-06-14T05:12:53;96925.63;;;17.65
19102;BMP280;9683;49.028;12.064;2023-06-14T05:15:19;96922.66;;;17.71
19102;BMP280;9683;49.028;12.064;2023-06-14T05:17:50;96916.00;;;17.49
19102;BMP280;9683;49.028;12.064;2023-06-14T05:20:20;96923.81;;;17.50
19102;BMP280;9683;49.028;12.064;2023-06-14T05:22:48;96923.75;;;17.55
19102;BMP280;9683;49.028;12.064;2023-06-14T05:25:16;96847.53;;;17.16
19102;BMP280;9683;49.028;12.064;2023-06-14T05:27:43;96922.38;;;17.68
19102;BMP280;9683;49.028;12.064;2023-06-14T05:30:11;96922.63;;;17.76
19102;BMP280;9683;49.028;12.064;2023-06-14T05:32:37;96926.38;;;17.80
19102;BMP280;9683;49.028;12.064;2023-06-14T05:35:05;96939.53;;;17.87
19102;BMP280;9683;49.028;12.064;2023-06-14T05:37:32;96905.41;;;17.72
19102;BMP280;9683;49.028;12.064;2023-06-14T05:39:58;96917.50;;;17.80
19102;BMP280;9683;49.028;12.064;2023-06-14T05:42:26;96935.53;;;17.79
19102;BMP280;9683;49.028;12.064;2023-06-14T05:44:53;96937.44;;;17.79
19102;BMP280;9683;49.028;12.064;2023-06-14T05:47:20;96939.81;;;17.80
19102;BMP280;9683;49.028;12.064;2023-06-14T05:49:47;96937.94;;;17.81
19102;BMP280;9683;49.028;12.064;2023-06-14T05:52:14;96944.09;;;17.92
19102;BMP280;9683;49.028;12.064;2023-06-14T05:54:40;96941.66;;;17.95
19102;BMP280;9683;49.028;12.064;2023-06-14T05:57:07;96943.31;;;17.86
19102;BMP280;9683;49.028;12.064;2023-06-14T05:59:35;96929.38;;;17.74
19102;BMP280;9683;49.028;12.064;2023-06-14T06:02:01;96943.28;;;17.91
19102;BMP280;9683;49.028;12.064;2023-06-14T06:04:28;96920.44;;;17.89
19102;BMP280;9683;49.028;12.064;2023-06-14T06:06:54;96935.63;;;18.13
19102;BMP280;9683;49.028;12.064;2023-06-14T06:09:21;96950.09;;;18.22
19102;BMP280;9683;49.028;12.064;2023-06-14T06:11:47;96950.59;;;18.35
19102;BMP280;9683;49.028;12.064;2023-06-14T06:14:14;96950.72;;;18.48
19102;BMP280;9683;49.028;12.064;2023-06-14T06:16:41;96953.06;;;18.65
19102;BMP280;9683;49.028;12.064;2023-06-14T06:19:08;96951.91;;;18.76
19102;BMP280;9683;49.028;12.064;2023-06-14T06:21:35;96950.44;;;18.89
19102;BMP280;9683;49.028;12.064;2023-06-14T06:24:02;96953.63;;;18.96
19102;BMP280;9683;49.028;12.064;2023-06-14T06:26:30;96955.91;;;19.07
19102;BMP280;9683;49.028;12.064;2023-06-14T06:28:57;96961.72;;;19.19
19102;BMP280;9683;49.028;12.064;2023-06-14T06:31:24;96971.34;;;19.31
19102;BMP280;9683;49.028;12.064;2023-06-14T06:33:54;96968.03;;;19.39
19102;BMP280;9683;49.028;12.064;2023-06-14T06:36:20;96967.44;;;19.47
19102;BMP280;9683;49.028;12.064;2023-06-14T06:38:47;96966.84;;;19.50
19102;BMP280;9683;49.028;12.064;2023-06-14T06:41:14;96971.16;;;19.51
19102;BMP280;9683;49.028;12.064;2023-06-14T06:43:41;96973.81;;;19.56
19102;BMP280;9683;49.028;12.064;2023-06-14T06:46:07;96966.75;;;19.60
19102;BMP280;9683;49.028;12.064;2023-06-14T06:48:34;96965.09;;;19.64
19102;BMP280;9683;49.028;12.064;2023-06-14T06:51:02;96973.28;;;19.78
19102;BMP280;9683;49.028;12.064;2023-06-14T06:53:28;96971.91;;;19.80
19102;BMP280;9683;49.028;12.064;2023-06-14T06:55:55;96973.16;;;19.88
19102;BMP280;9683;49.028;12.064;2023-06-14T06:58:21;96968.22;;;19.95
19102;BMP280;9683;49.028;12.064;2023-06-14T07:00:48;96981.31;;;20.06
19102;BMP280;9683;49.028;12.064;2023-06-14T07:03:15;96983.63;;;20.13
19102;BMP280;9683;49.028;12.064;2023-06-14T07:05:41;96981.09;;;20.22
19102;BMP280;9683;49.028;12.064;2023-06-14T07:08:09;96984.22;;;20.29
19102;BMP280;9683;49.028;12.064;2023-06-14T07:10:36;96983.72;;;20.27
19102;BMP280;9683;49.028;12.064;2023-06-14T07:13:02;96985.13;;;20.24
19102;BMP280;9683;49.028;12.064;2023-06-14T07:15:29;96982.72;;;20.23
19102;BMP280;9683;49.028;12.064;2023-06-14T07:17:56;96993.25;;;20.24
19102;BMP280;9683;49.028;12.064;2023-06-14T07:20:25;96996.41;;;20.31
19102;BMP280;9683;49.028;12.064;2023-06-14T07:22:51;96993.69;;;20.31
19102;BMP280;9683;49.028;12.064;2023-06-14T07:25:19;96992.63;;;20.32
19102;BMP280;9683;49.028;12.064;2023-06-14T07:27:47;96981.09;;;20.22
19102;BMP280;9683;49.028;12.064;2023-06-14T07:30:14;96961.16;;;20.18
19102;BMP280;9683;49.028;12.064;2023-06-14T07:32:40;96999.75;;;20.42
19102;BMP280;9683;49.028;12.064;2023-06-14T07:35:07;96999.41;;;20.48
19102;BMP280;9683;49.028;12.064;2023-06-14T07:37:34;96999.41;;;20.48
19102;BMP280;9683;49.028;12.064;2023-06-14T07:40:01;96997.00;;;20.47
19102;BMP280;9683;49.028;12.064;2023-06-14T07:42:33;96999.09;;;20.50
19102;BMP280;9683;49.028;12.064;2023-06-14T07:45:00;97005.78;;;20.57
19102;BMP280;9683;49.028;12.064;2023-06-14T07:47:26;97004.78;;;20.67
19102;BMP280;9683;49.028;12.064;2023-06-14T07:49:52;96997.19;;;20.69
19102;BMP280;9683;49.028;12.064;2023-06-14T07:52:19;96977.25;;;20.65
19102;BMP280;9683;49.028;12.064;2023-06-14T07:54:45;97007.22;;;20.87
19102;BMP280;9683;49.028;12.064;2023-06-14T07:57:12;97005.59;;;20.86
19102;BMP280;9683;49.028;12.064;2023-06-14T07:59:40;97005.28;;;20.88
19102;BMP280;9683;49.028;12.064;2023-06-14T08:02:07;96999.03;;;20.74
19102;BMP280;9683;49.028;12.064;2023-06-14T08:04:33;97006.06;;;20.75
19102;BMP280;9683;49.028;12.064;2023-06-14T08:07:00;97001.94;;;20.77
19102;BMP280;9683;49.028;12.064;2023-06-14T08:09:27;97008.00;;;20.88
19102;BMP280;9683;49.028;12.064;2023-06-14T08:11:54;97010.81;;;20.96
19102;BMP280;9683;49.028;12.064;2023-06-14T08:14:20;97016.38;;;21.05
19102;BMP280;9683;49.028;12.064;2023-06-14T08:16:48;97013.00;;;21.13
19102;BMP280;9683;49.028;12.064;2023-06-14T08:19:15;97017.53;;;21.18
19102;BMP280;9683;49.028;12.064;2023-06-14T08:21:42;97013.66;;;21.24
19102;BMP280;9683;49.028;12.064;2023-06-14T08:24:10;97011.06;;;21.32
19102;BMP280;9683;49.028;12.064;2023-06-14T08:26:37;97016.63;;;21.41
19102;BMP280;9683;49.028;12.064;2023-06-14T08:29:04;97022.44;;;21.48
19102;BMP280;9683;49.028;12.064;2023-06-14T08:31:32;97018.22;;;21.56
19102;BMP280;9683;49.028;12.064;2023-06-14T08:34:00;97014.63;;;21.60
19102;BMP280;9683;49.028;12.064;2023-06-14T08:36:26;97019.16;;;21.65
19102;BMP280;9683;49.028;12.064;2023-06-14T08:38:53;97020.06;;;21.74
19102;BMP280;9683;49.028;12.064;2023-06-14T08:41:21;97024.59;;;21.78
19102;BMP280;9683;49.028;12.064;2023-06-14T08:43:48;97018.25;;;21.83
19102;BMP280;9683;49.028;12.064;2023-06-14T08:46:17;97000.28;;;21.73
19102;BMP280;9683;49.028;12.064;2023-06-14T08:48:46;97026.59;;;21.86
19102;BMP280;9683;49.028;12.064;2023-06-14T08:51:15;97014.75;;;21.82
19102;BMP280;9683;49.028;12.064;2023-06-14T08:53:43;97025.44;;;21.92
19102;BMP280;9683;49.028;12.064;2023-06-14T08:56:10;97025.91;;;21.94
19102;BMP280;9683;49.028;12.064;2023-06-14T08:58:40;97023.41;;;21.98
19102;BMP280;9683;49.028;12.064;2023-06-14T09:01:09;96962.13;;;21.56
19102;BMP280;9683;49.028;12.064;2023-06-14T09:03:37;97028.44;;;22.05
19102;BMP280;9683;49.028;12.064;2023-06-14T09:06:06;97027.53;;;22.09
19102;BMP280;9683;49.028;12.064;2023-06-14T09:08:35;96920.09;;;21.45
19102;BMP280;9683;49.028;12.064;2023-06-14T09:11:02;97028.81;;;22.12
19102;BMP280;9683;49.028;12.064;2023-06-14T09:13:28;97029.94;;;22.11
19102;BMP280;9683;49.028;12.064;2023-06-14T09:15:55;97024.41;;;22.16
19102;BMP280;9683;49.028;12.064;2023-06-14T09:18:21;97039.88;;;22.15
19102;BMP280;9683;49.028;12.064;2023-06-14T09:20:48;97037.34;;;22.19
19102;BMP280;9683;49.028;12.064;2023-06-14T09:23:20;97032.91;;;22.23
19102;BMP280;9683;49.028;12.064;2023-06-14T09:25:48;97015.78;;;22.14
19102;BMP280;9683;49.028;12.064;2023-06-14T09:28:15;97037.63;;;22.31
19102;BMP280;9683;49.028;12.064;2023-06-14T09:30:41;97035.81;;;22.40
19102;BMP280;9683;49.028;12.064;2023-06-14T09:33:08;97033.28;;;22.44
19102;BMP280;9683;49.028;12.064;2023-06-14T09:35:35;97033.09;;;22.54
19102;BMP280;9683;49.028;12.064;2023-06-14T09:38:02;97035.50;;;22.55
19102;BMP280;9683;49.028;12.064;2023-06-14T09:40:28;97006.06;;;22.35
19102;BMP280;9683;49.028;12.064;2023-06-14T09:42:57;97038.69;;;22.57
19102;BMP280;9683;49.028;12.064;2023-06-14T09:45:25;97046.53;;;22.59
19102;BMP280;9683;49.028;12.064;2023-06-14T09:47:55;97041.13;;;22.59
19102;BMP280;9683;49.028;12.064;2023-06-14T09:50:22;97043.22;;;22.62
19102;BMP280;9683;49.028;12.064;2023-06-14T09:52:52;97040.91;;;22.69
19102;BMP280;9683;49.028;12.064;2023-06-14T09:55:18;97036.47;;;22.73
19102;BMP280;9683;49.028;12.064;2023-06-14T09:57:47;97045.19;;;22.83
19102;BMP280;9683;49.028;12.064;2023-06-14T10:00:18;97037.75;;;22.89
19102;BMP280;9683;49.028;12.064;2023-06-14T10:02:50;97042.09;;;22.99
19102;BMP280;9683;49.028;12.064;2023-06-14T10:05:21;97054.94;;;23.07
19102;BMP280;9683;49.028;12.064;2023-06-14T10:07:53;97045.59;;;23.13
19102;BMP280;9683;49.028;12.064;2023-06-14T10:10:22;97043.97;;;23.12
19102;BMP280;9683;49.028;12.064;2023-06-14T10:12:49;97032.97;;;23.17
19102;BMP280;9683;49.028;12.064;2023-06-14T10:15:20;97038.47;;;23.25
19102;BMP280;9683;49.028;12.064;2023-06-14T10:17:51;97002.41;;;23.11
19102;BMP280;9683;49.028;12.064;2023-06-14T10:20:27;97034.00;;;23.43
19102;BMP280;9683;49.028;12.064;2023-06-14T10:23:00;97044.94;;;23.38
19102;BMP280;9683;49.028;12.064;2023-06-14T10:25:28;97031.13;;;23.26
19102;BMP280;9683;49.028;12.064;2023-06-14T10:28:02;97032.91;;;23.30
19102;BMP280;9683;49.028;12.064;2023-06-14T10:30:30;97036.63;;;23.35
19102;BMP280;9683;49.028;12.064;2023-06-14T10:33:03;97040.50;;;23.42
19102;BMP280;9683;49.028;12.064;2023-06-14T10:35:30;97029.63;;;23.42
19102;BMP280;9683;49.028;12.064;2023-06-14T10:38:06;97030.81;;;23.50
19102;BMP280;9683;49.028;12.064;2023-06-14T10:40:33;97042.06;;;23.57
19102;BMP280;9683;49.028;12.064;2023-06-14T10:43:00;97041.59;;;23.63
19102;BMP280;9683;49.028;12.064;2023-06-14T10:45:26;97038.63;;;23.73
19102;BMP280;9683;49.028;12.064;2023-06-14T10:47:57;97030.00;;;23.80
19102;BMP280;9683;49.028;12.064;2023-06-14T10:50:27;97012.72;;;23.76
19102;BMP280;9683;49.028;12.064;2023-06-14T10:52:54;97027.81;;;23.91
19102;BMP280;9683;49.028;12.064;2023-06-14T10:55:21;97027.22;;;24.02
19102;BMP280;9683;49.028;12.064;2023-06-14T10:57:50;97012.00;;;24.01
19102;BMP280;9683;49.028;12.064;2023-06-14T11:00:19;97009.63;;;24.08
19102;BMP280;9683;49.028;12.064;2023-06-14T11:03:01;97022.50;;;24.25
19102;BMP280;9683;49.028;12.064;2023-06-14T11:05:48;97023.31;;;24.34
19102;BMP280;9683;49.028;12.064;2023-06-14T11:08:38;97024.94;;;24.44
19102;BMP280;9683;49.028;12.064;2023-06-14T11:11:06;97018.06;;;24.55
19102;BMP280;9683;49.028;12.064;2023-06-14T11:13:33;97015.69;;;24.62
19102;BMP280;9683;49.028;12.064;2023-06-14T11:16:00;97012.47;;;24.69
19102;BMP280;9683;49.028;12.064;2023-06-14T11:18:28;97009.91;;;24.72
19102;BMP280;9683;49.028;12.064;2023-06-14T11:20:54;97008.50;;;24.75
19102;BMP280;9683;49.028;12.064;2023-06-14T11:23:21;96990.53;;;24.65
19102;BMP280;9683;49.028;12.064;2023-06-14T11:25:52;97007.88;;;24.86
19102;BMP280;9683;49.028;12.064;2023-06-14T11:28:18;97012.50;;;24.94
19102;BMP280;9683;49.028;12.064;2023-06-14T11:30:46;97012.66;;;24.89
19102;BMP280;9683;49.028;12.064;2023-06-14T11:33:16;97013.78;;;24.88
19102;BMP280;9683;49.028;12.064;2023-06-14T11:35:45;97014.72;;;24.84
19102;BMP280;9683;49.028;12.064;2023-06-14T11:38:11;97013.44;;;24.81
19102;BMP280;9683;49.028;12.064;2023-06-14T11:40:39;97020.63;;;24.51
19102;BMP280;9683;49.028;12.064;2023-06-14T11:43:05;97016.78;;;24.35
19102;BMP280;9683;49.028;12.064;2023-06-14T11:45:32;97006.34;;;24.37
19102;BMP280;9683;49.028;12.064;2023-06-14T11:47:59;97011.50;;;24.47
19102;BMP280;9683;49.028;12.064;2023-06-14T11:50:26;97014.09;;;24.61
19102;BMP280;9683;49.028;12.064;2023-06-14T11:52:55;97008.00;;;24.73
19102;BMP280;9683;49.028;12.064;2023-06-14T11:55:22;97003.50;;;24.77
19102;BMP280;9683;49.028;12.064;2023-06-14T11:57:49;97003.34;;;24.73
19102;BMP280;9683;49.028;12.064;2023-06-14T12:00:16;97000.31;;;24.66
19102;BMP280;9683;49.028;12.064;2023-06-14T12:02:43;97002.38;;;24.60
19102;BMP280;9683;49.028;12.064;2023-06-14T12:05:20;96997.25;;;24.59
19102;BMP280;9683;49.028;12.064;2023-06-14T12:07:47;97005.56;;;24.62
19102;BMP280;9683;49.028;12.064;2023-06-14T12:10:15;96996.94;;;24.52
19102;BMP280;9683;49.028;12.064;2023-06-14T12:12:42;97006.69;;;24.36
19102;BMP280;9683;49.028;12.064;2023-06-14T12:15:09;97005.03;;;24.17
19102;BMP280;9683;49.028;12.064;2023-06-14T12:17:38;96971.28;;;23.79
19102;BMP280;9683;49.028;12.064;2023-06-14T12:20:08;97001.78;;;23.98
19102;BMP280;9683;49.028;12.064;2023-06-14T12:22:36;97011.41;;;24.13
19102;BMP280;9683;49.028;12.064;2023-06-14T12:25:03;97004.75;;;24.28
19102;BMP280;9683;49.028;12.064;2023-06-14T12:27:32;97000.91;;;24.46
19102;BMP280;9683;49.028;12.064;2023-06-14T12:29:59;97003.34;;;24.56
19102;BMP280;9683;49.028;12.064;2023-06-14T12:32:26;96999.34;;;24.62
19102;BMP280;9683;49.028;12.064;2023-06-14T12:34:53;96991.66;;;24.64
19102;BMP280;9683;49.028;12.064;2023-06-14T12:37:19;96999.53;;;24.83
19102;BMP280;9683;49.028;12.064;2023-06-14T12:39:46;97000.00;;;24.93
19102;BMP280;9683;49.028;12.064;2023-06-14T12:42:12;97000.50;;;25.04
19102;BMP280;9683;49.028;12.064;2023-06-14T12:44:41;96994.22;;;25.12
19102;BMP280;9683;49.028;12.064;2023-06-14T12:47:08;97000.78;;;25.20
19102;BMP280;9683;49.028;12.064;2023-06-14T12:49:34;97002.69;;;25.28
19102;BMP280;9683;49.028;12.064;2023-06-14T12:52:01;97010.84;;;25.36
19102;BMP280;9683;49.028;12.064;2023-06-14T12:54:27;97007.31;;;25.44
19102;BMP280;9683;49.028;12.064;2023-06-14T12:56:54;97004.41;;;25.49
19102;BMP280;9683;49.028;12.064;2023-06-14T12:59:20;97008.72;;;25.59
19102;BMP280;9683;49.028;12.064;2023-06-14T13:01:48;97005.00;;;25.64
19102;BMP280;9683;49.028;12.064;2023-06-14T13:04:15;96985.63;;;25.57
19102;BMP280;9683;49.028;12.064;2023-06-14T13:06:42;97014.91;;;25.77
19102;BMP280;9683;49.028;12.064;2023-06-14T13:09:08;97002.75;;;25.74
19102;BMP280;9683;49.028;12.064;2023-06-14T13:11:36;96996.31;;;25.79
19102;BMP280;9683;49.028;12.064;2023-06-14T13:14:03;97009.09;;;25.87
19102;BMP280;9683;49.028;12.064;2023-06-14T13:16:30;97011.22;;;25.81
19102;BMP280;9683;49.028;12.064;2023-06-14T13:18:58;97015.81;;;25.89
19102;BMP280;9683;49.028;12.064;2023-06-14T13:21:25;97011.44;;;25.97
19102;BMP280;9683;49.028;12.064;2023-06-14T13:23:51;97004.38;;;26.05
19102;BMP280;9683;49.028;12.064;2023-06-14T13:26:19;97004.34;;;26.13
19102;BMP280;9683;49.028;12.064;2023-06-14T13:28:45;97004.13;;;26.18
19102;BMP280;9683;49.028;12.064;2023-06-14T13:31:12;97001.09;;;26.20
19102;BMP280;9683;49.028;12.064;2023-06-14T13:33:38;97008.31;;;26.24
19102;BMP280;9683;49.028;12.064;2023-06-14T13:36:06;96996.41;;;26.29
19102;BMP280;9683;49.028;12.064;2023-06-14T13:38:32;96991.38;;;26.31
19102;BMP280;9683;49.028;12.064;2023-06-14T13:40:59;96994.28;;;26.34
19102;BMP280;9683;49.028;12.064;2023-06-14T13:43:25;96995.06;;;26.35
19102;BMP280;9683;49.028;12.064;2023-06-14T13:45:52;96994.53;;;26.41
19102;BMP280;9683;49.028;12.064;2023-06-14T13:48:18;96979.09;;;26.45
19102;BMP280;9683;49.028;12.064;2023-06-14T13:50:45;96990.22;;;26.61
19102;BMP280;9683;49.028;12.064;2023-06-14T13:53:13;96985.81;;;26.69
19102;BMP280;9683;49.028;12.064;2023-06-14T13:55:40;96981.28;;;26.73
19102;BMP280;9683;49.028;12.064;2023-06-14T13:58:06;96978.53;;;26.73
19102;BMP280;9683;49.028;12.064;2023-06-14T14:00:33;96990.22;;;26.82
19102;BMP280;9683;49.028;12.064;2023-06-14T14:03:01;96994.19;;;26.93
19102;BMP280;9683;49.028;12.064;2023-06-14T14:05:28;96990.88;;;27.00
19102;BMP280;9683;49.028;12.064;2023-06-14T14:07:55;96988.63;;;27.02
19102;BMP280;9683;49.028;12.064;2023-06-14T14:10:25;96991.81;;;27.04
19102;BMP280;9683;49.028;12.064;2023-06-14T14:12:51;96969.78;;;26.88